createdAt,value
2017-07-14T00:00:15.018Z,1011.58
2017-07-14T00:01:14.997Z,1011.55
2017-07-14T00:02:14.986Z,1011.53
2017-07-14T00:03:14.973Z,1011.54
2017-07-14T00:04:14.952Z,1011.55
2017-07-14T00:05:14.938Z,1011.56
2017-07-14T00:06:14.918Z,1011.53
2017-07-14T00:07:14.908Z,1011.55
2017-07-14T00:08:14.888Z,1011.49
2017-07-14T00:09:14.869Z,1011.47
2017-07-14T00:10:14.854Z,1011.46
2017-07-14T00:11:14.838Z,1011.46
2017-07-14T00:12:14.818Z,1011.45
2017-07-14T00:13:14.807Z,1011.46
2017-07-14T00:14:14.790Z,1011.44
2017-07-14T00:15:14.778Z,1011.45
2017-07-14T00:16:14.753Z,1011.44
2017-07-14T00:17:14.748Z,1011.44
2017-07-14T00:18:14.731Z,1011.43
2017-07-14T00:19:14.704Z,1011.44
2017-07-14T00:20:14.689Z,1011.44
2017-07-14T00:21:14.672Z,1011.41
2017-07-14T00:22:14.658Z,1011.4
2017-07-14T00:23:14.641Z,1011.39
2017-07-14T00:24:14.622Z,1011.38
2017-07-14T00:25:14.607Z,1011.36
2017-07-14T00:26:14.589Z,1011.34
2017-07-14T00:27:14.588Z,1011.31
2017-07-14T00:28:14.569Z,1011.28
2017-07-14T00:29:14.549Z,1011.27
2017-07-14T00:30:14.529Z,1011.24
2017-07-14T00:31:14.510Z,1011.22
2017-07-14T00:32:14.504Z,1011.21
2017-07-14T00:33:14.478Z,1011.23
2017-07-14T00:34:14.469Z,1011.19
2017-07-14T00:35:14.455Z,1011.17
2017-07-14T00:36:14.429Z,1011.17
2017-07-14T00:37:14.408Z,1011.16
2017-07-14T00:38:14.400Z,1011.15
2017-07-14T00:39:14.377Z,1011.15
2017-07-14T00:40:14.362Z,1011.15
2017-07-14T00:41:14.351Z,1011.16
2017-07-14T00:42:14.326Z,1011.15
2017-07-14T00:43:14.311Z,1011.17
2017-07-14T00:44:14.296Z,1011.17
2017-07-14T00:45:14.277Z,1011.15
2017-07-14T00:46:14.259Z,1011.12
2017-07-14T00:47:14.239Z,1011.1
2017-07-14T00:48:14.223Z,1011.13
2017-07-14T00:49:14.207Z,1011.13
2017-07-14T00:50:14.197Z,1011.1
2017-07-14T00:51:14.177Z,1011.06
2017-07-14T00:52:14.157Z,1011.12
2017-07-14T00:53:14.146Z,1011.09
2017-07-14T00:54:14.134Z,1011.1
2017-07-14T00:55:14.107Z,1011.09
2017-07-14T00:56:14.092Z,1011.1
2017-07-14T00:57:14.076Z,1011.07
2017-07-14T00:58:14.060Z,1011.07
2017-07-14T00:59:14.041Z,1011.07
2017-07-14T01:00:14.030Z,1011.07
2017-07-14T01:01:14.008Z,1011.06
2017-07-14T01:02:13.999Z,1011.04
2017-07-14T01:03:13.983Z,1011.04
2017-07-14T01:04:13.959Z,1011.07
2017-07-14T01:05:13.949Z,1011.05
2017-07-14T01:06:13.928Z,1011
2017-07-14T01:07:13.909Z,1010.98
2017-07-14T01:08:13.896Z,1010.97
2017-07-14T01:09:13.875Z,1010.96
2017-07-14T01:10:13.858Z,1010.95
2017-07-14T01:11:13.839Z,1010.88
2017-07-14T01:12:13.825Z,1010.86
2017-07-14T01:13:13.814Z,1010.85
2017-07-14T01:14:13.791Z,1010.84
2017-07-14T01:15:13.777Z,1010.83
2017-07-14T01:16:13.759Z,1010.81
2017-07-14T01:17:13.736Z,1010.81
2017-07-14T01:18:13.725Z,1010.82
2017-07-14T01:19:13.709Z,1010.8
2017-07-14T01:20:13.684Z,1010.8
2017-07-14T01:21:13.668Z,1010.82
2017-07-14T01:22:13.657Z,1010.8
2017-07-14T01:23:13.640Z,1010.79
2017-07-14T01:24:13.618Z,1010.79
2017-07-14T01:25:13.599Z,1010.73
2017-07-14T01:26:13.587Z,1010.76
2017-07-14T01:27:13.573Z,1010.75
2017-07-14T01:28:13.547Z,1010.75
2017-07-14T01:29:13.538Z,1010.74
2017-07-14T01:30:13.516Z,1010.76
2017-07-14T01:31:13.497Z,1010.67
2017-07-14T01:32:13.479Z,1010.7
2017-07-14T01:33:13.517Z,1010.7
2017-07-14T01:34:13.449Z,1010.71
2017-07-14T01:35:13.431Z,1010.66
2017-07-14T01:36:13.412Z,1010.66
2017-07-14T01:37:13.449Z,1010.7
2017-07-14T01:38:13.388Z,1010.69
2017-07-14T01:39:13.467Z,1010.69
2017-07-14T01:40:13.348Z,1010.66
2017-07-14T01:41:13.390Z,1010.64
2017-07-14T01:42:13.316Z,1010.67
2017-07-14T01:43:13.399Z,1010.62
2017-07-14T01:44:13.279Z,1010.61
2017-07-14T01:45:13.267Z,1010.63
2017-07-14T01:46:13.247Z,1010.61
2017-07-14T01:47:13.227Z,1010.56
2017-07-14T01:48:13.206Z,1010.6
2017-07-14T01:49:13.243Z,1010.58
2017-07-14T01:50:13.175Z,1010.53
2017-07-14T01:51:13.208Z,1010.52
2017-07-14T01:52:13.141Z,1010.53
2017-07-14T01:53:13.229Z,1010.52
2017-07-14T01:54:13.109Z,1010.49
2017-07-14T01:55:13.086Z,1010.5
2017-07-14T01:56:13.070Z,1010.44
2017-07-14T01:57:13.060Z,1010.46
2017-07-14T01:58:13.036Z,1010.43
2017-07-14T01:59:13.017Z,1010.44
2017-07-14T02:00:12.999Z,1010.45
2017-07-14T02:01:12.987Z,1010.47
2017-07-14T02:02:12.967Z,1010.48
2017-07-14T02:03:13.059Z,1010.48
2017-07-14T02:04:12.933Z,1010.46
2017-07-14T02:05:12.967Z,1010.45
2017-07-14T02:06:12.896Z,1010.42
2017-07-14T02:07:12.884Z,1010.45
2017-07-14T02:08:12.865Z,1010.45
2017-07-14T02:09:12.897Z,1010.43
2017-07-14T02:10:12.827Z,1010.43
2017-07-14T02:11:12.818Z,1010.41
2017-07-14T02:12:12.796Z,1010.42
2017-07-14T02:13:12.826Z,1010.39
2017-07-14T02:14:12.756Z,1010.42
2017-07-14T02:15:12.744Z,1010.43
2017-07-14T02:16:12.728Z,1010.42
2017-07-14T02:17:12.709Z,1010.42
2017-07-14T02:18:12.692Z,1010.4
2017-07-14T02:19:12.676Z,1010.45
2017-07-14T02:20:12.654Z,1010.44
2017-07-14T02:21:12.638Z,1010.42
2017-07-14T02:22:12.616Z,1010.43
2017-07-14T02:23:12.607Z,1010.42
2017-07-14T02:24:12.587Z,1010.4
2017-07-14T02:25:12.567Z,1010.39
2017-07-14T02:26:12.558Z,1010.4
2017-07-14T02:27:12.535Z,1010.4
2017-07-14T02:28:12.516Z,1010.37
2017-07-14T02:29:12.496Z,1010.34
2017-07-14T02:30:12.484Z,1010.35
2017-07-14T02:31:12.468Z,1010.37
2017-07-14T02:32:12.446Z,1010.33
2017-07-14T02:33:12.436Z,1010.31
2017-07-14T02:34:12.409Z,1010.31
2017-07-14T02:35:12.397Z,1010.35
2017-07-14T02:36:12.375Z,1010.25
2017-07-14T02:37:12.366Z,1010.25
2017-07-14T02:38:12.347Z,1010.21
2017-07-14T02:39:12.328Z,1010.23
2017-07-14T02:40:12.306Z,1010.26
2017-07-14T02:41:12.293Z,1010.23
2017-07-14T02:42:12.276Z,1010.23
2017-07-14T02:43:12.256Z,1010.23
2017-07-14T02:44:12.239Z,1010.22
2017-07-14T02:45:12.221Z,1010.23
2017-07-14T02:46:12.208Z,1010.25
2017-07-14T02:47:12.189Z,1010.24
2017-07-14T02:48:12.173Z,1010.23
2017-07-14T02:49:12.157Z,1010.24
2017-07-14T02:50:12.138Z,1010.21
2017-07-14T02:51:12.119Z,1010.21
2017-07-14T02:52:12.108Z,1010.18
2017-07-14T02:53:12.090Z,1010.21
2017-07-14T02:54:12.077Z,1010.17
2017-07-14T02:55:12.053Z,1010.19
2017-07-14T02:56:12.033Z,1010.18
2017-07-14T02:57:12.018Z,1010.19
2017-07-14T02:58:12.003Z,1010.17
2017-07-14T02:59:11.983Z,1010.18
2017-07-14T03:00:11.970Z,1010.19
2017-07-14T03:01:11.946Z,1010.14
2017-07-14T03:02:11.929Z,1010.15
2017-07-14T03:03:11.913Z,1010.1
2017-07-14T03:04:11.892Z,1010.14
2017-07-14T03:05:11.876Z,1010.09
2017-07-14T03:06:11.858Z,1010.11
2017-07-14T03:07:11.839Z,1010.09
2017-07-14T03:08:11.827Z,1010.08
2017-07-14T03:09:11.807Z,1010.04
2017-07-14T03:10:11.790Z,1010.01
2017-07-14T03:11:11.777Z,1010
2017-07-14T03:12:11.760Z,1010.04
2017-07-14T03:13:11.737Z,1010.01
2017-07-14T03:14:11.718Z,1010.01
2017-07-14T03:15:11.701Z,1010.03
2017-07-14T03:16:11.686Z,1010.04
2017-07-14T03:17:11.670Z,1010.04
2017-07-14T03:18:11.657Z,1010.03
2017-07-14T03:19:11.632Z,1010.06
2017-07-14T03:20:11.616Z,1010.06
2017-07-14T03:21:11.598Z,1010.09
2017-07-14T03:22:11.584Z,1010.05
2017-07-14T03:23:11.561Z,1010.06
2017-07-14T03:24:11.546Z,1010.07
2017-07-14T03:25:11.528Z,1010.07
2017-07-14T03:26:11.513Z,1010.04
2017-07-14T03:27:11.498Z,1010.05
2017-07-14T03:28:11.475Z,1010.03
2017-07-14T03:29:11.460Z,1010.01
2017-07-14T03:30:11.439Z,1010.04
2017-07-14T03:31:11.426Z,1010.04
2017-07-14T03:32:11.404Z,1010.05
2017-07-14T03:33:11.387Z,1010.06
2017-07-14T03:34:11.372Z,1010.07
2017-07-14T03:35:11.357Z,1010.05
2017-07-14T03:36:11.337Z,1010.05
2017-07-14T03:37:11.319Z,1010.05
2017-07-14T03:38:11.300Z,1010.02
2017-07-14T03:39:11.278Z,1009.99
2017-07-14T03:40:11.273Z,1010.01
2017-07-14T03:41:11.249Z,1010.03
2017-07-14T03:42:11.227Z,1010.03
2017-07-14T03:43:11.214Z,1010.06
2017-07-14T03:44:11.193Z,1010.05
2017-07-14T03:45:11.176Z,1010.03
2017-07-14T03:46:11.156Z,1010.08
2017-07-14T03:47:11.144Z,1010.04
2017-07-14T03:48:11.123Z,1010.05
2017-07-14T03:49:11.108Z,1010.04
2017-07-14T03:50:11.088Z,1010.09
2017-07-14T03:51:11.071Z,1010.09
2017-07-14T03:52:11.056Z,1010.1
2017-07-14T03:53:11.034Z,1010.11
2017-07-14T03:54:11.017Z,1010.13
2017-07-14T03:55:11.005Z,1010.11
2017-07-14T03:56:10.980Z,1010.14
2017-07-14T03:57:10.964Z,1010.11
2017-07-14T03:58:10.945Z,1010.13
2017-07-14T03:59:10.927Z,1010.08
2017-07-14T04:00:10.920Z,1010.13
2017-07-14T04:01:10.893Z,1010.11
2017-07-14T04:02:10.877Z,1010.1
2017-07-14T04:03:10.861Z,1010.08
2017-07-14T04:04:10.843Z,1010.07
2017-07-14T04:05:10.824Z,1010.08
2017-07-14T04:06:10.809Z,1010.08
2017-07-14T04:07:10.785Z,1010.06
2017-07-14T04:08:10.771Z,1010.05
2017-07-14T04:09:10.750Z,1010.06
2017-07-14T04:10:10.734Z,1010.08
2017-07-14T04:11:10.715Z,1010.07
2017-07-14T04:12:10.696Z,1010.08
2017-07-14T04:13:10.683Z,1010.06
2017-07-14T04:14:10.666Z,1010.03
2017-07-14T04:15:10.645Z,1010.08
2017-07-14T04:16:10.628Z,1010.04
2017-07-14T04:17:10.612Z,1010.04
2017-07-14T04:18:10.599Z,1010.05
2017-07-14T04:19:10.586Z,1010.04
2017-07-14T04:20:10.556Z,1010.04
2017-07-14T04:21:10.546Z,1010.07
2017-07-14T04:22:10.519Z,1010.06
2017-07-14T04:23:10.506Z,1010.02
2017-07-14T04:24:10.486Z,1010.02
2017-07-14T04:25:10.473Z,1010.04
2017-07-14T04:26:10.453Z,1010.04
2017-07-14T04:27:10.431Z,1010.07
2017-07-14T04:28:10.416Z,1010.05
2017-07-14T04:29:10.409Z,1010.06
2017-07-14T04:30:10.380Z,1010.01
2017-07-14T04:31:10.366Z,1010
2017-07-14T04:32:10.348Z,1009.98
2017-07-14T04:33:10.329Z,1009.99
2017-07-14T04:34:10.317Z,1010
2017-07-14T04:35:10.292Z,1009.97
2017-07-14T04:36:10.274Z,1009.94
2017-07-14T04:37:10.256Z,1010
2017-07-14T04:38:10.248Z,1010.01
2017-07-14T04:39:10.225Z,1010
2017-07-14T04:40:10.206Z,1010.04
2017-07-14T04:41:10.188Z,1010.01
2017-07-14T04:42:10.167Z,1010.03
2017-07-14T04:43:10.150Z,1009.99
2017-07-14T04:44:10.136Z,1009.98
2017-07-14T04:45:10.116Z,1009.98
2017-07-14T04:46:10.108Z,1009.98
2017-07-14T04:47:10.085Z,1009.97
2017-07-14T04:48:10.065Z,1009.96
2017-07-14T04:49:10.047Z,1009.96
2017-07-14T04:50:10.044Z,1009.96
2017-07-14T04:51:10.018Z,1009.97
2017-07-14T04:52:09.996Z,1009.94
2017-07-14T04:53:09.975Z,1009.95
2017-07-14T04:54:09.967Z,1009.92
2017-07-14T04:55:09.946Z,1009.93
2017-07-14T04:56:09.926Z,1009.89
2017-07-14T04:57:09.918Z,1009.9
2017-07-14T04:58:09.902Z,1009.92
2017-07-14T04:59:09.874Z,1009.93
2017-07-14T05:00:09.861Z,1009.89
2017-07-14T05:01:09.847Z,1009.88
2017-07-14T05:02:09.825Z,1009.86
2017-07-14T05:03:09.808Z,1009.89
2017-07-14T05:04:09.789Z,1009.81
2017-07-14T05:05:09.779Z,1009.8
2017-07-14T05:06:09.758Z,1009.8
2017-07-14T05:07:09.736Z,1009.82
2017-07-14T05:08:09.719Z,1009.83
2017-07-14T05:09:09.707Z,1009.78
2017-07-14T05:10:09.684Z,1009.82
2017-07-14T05:11:09.669Z,1009.82
2017-07-14T05:12:09.648Z,1009.84
2017-07-14T05:13:09.637Z,1009.85
2017-07-14T05:14:09.618Z,1009.87
2017-07-14T05:15:09.603Z,1009.82
2017-07-14T05:16:09.585Z,1009.86
2017-07-14T05:17:09.568Z,1009.83
2017-07-14T05:18:09.561Z,1009.81
2017-07-14T05:19:09.527Z,1009.8
2017-07-14T05:20:09.517Z,1009.8
2017-07-14T05:21:09.497Z,1009.8
2017-07-14T05:22:09.577Z,1009.78
2017-07-14T05:23:09.456Z,1009.75
2017-07-14T05:24:09.440Z,1009.77
2017-07-14T05:25:09.426Z,1009.78
2017-07-14T05:26:09.405Z,1009.81
2017-07-14T05:27:09.394Z,1009.87
2017-07-14T05:28:09.378Z,1009.88
2017-07-14T05:29:09.357Z,1009.9
2017-07-14T05:30:09.429Z,1009.9
2017-07-14T05:31:09.322Z,1009.89
2017-07-14T05:32:09.309Z,1009.84
2017-07-14T05:33:09.287Z,1009.83
2017-07-14T05:34:09.277Z,1009.8
2017-07-14T05:35:09.257Z,1009.8
2017-07-14T05:36:09.237Z,1009.78
2017-07-14T05:37:09.217Z,1009.79
2017-07-14T05:38:09.203Z,1009.76
2017-07-14T05:39:09.188Z,1009.78
2017-07-14T05:40:09.167Z,1009.77
2017-07-14T05:41:09.147Z,1009.75
2017-07-14T05:42:09.130Z,1009.76
2017-07-14T05:43:09.115Z,1009.69
2017-07-14T05:44:09.097Z,1009.7
2017-07-14T05:45:09.080Z,1009.72
2017-07-14T05:46:09.067Z,1009.72
2017-07-14T05:47:09.046Z,1009.75
2017-07-14T05:48:09.026Z,1009.74
2017-07-14T05:49:09.013Z,1009.76
2017-07-14T05:50:09.103Z,1009.73
2017-07-14T05:51:08.973Z,1009.74
2017-07-14T05:52:08.963Z,1009.73
2017-07-14T05:53:08.944Z,1009.72
2017-07-14T05:54:08.926Z,1009.75
2017-07-14T05:55:08.906Z,1009.74
2017-07-14T05:56:08.906Z,1009.73
2017-07-14T05:57:08.875Z,1009.7
2017-07-14T05:58:08.856Z,1009.7
2017-07-14T05:59:08.840Z,1009.63
2017-07-14T06:00:08.818Z,1009.65
2017-07-14T06:01:08.806Z,1009.65
2017-07-14T06:02:08.785Z,1009.65
2017-07-14T06:03:08.772Z,1009.67
2017-07-14T06:04:08.752Z,1009.67
2017-07-14T06:05:08.731Z,1009.64
2017-07-14T06:06:08.716Z,1009.67
2017-07-14T06:07:08.696Z,1009.65
2017-07-14T06:08:08.680Z,1009.62
2017-07-14T06:09:08.665Z,1009.65
2017-07-14T06:10:08.645Z,1009.67
2017-07-14T06:11:08.628Z,1009.65
2017-07-14T06:12:08.617Z,1009.63
2017-07-14T06:13:08.596Z,1009.63
2017-07-14T06:14:08.577Z,1009.69
2017-07-14T06:15:08.566Z,1009.64
2017-07-14T06:16:08.547Z,1009.69
2017-07-14T06:17:08.527Z,1009.67
2017-07-14T06:18:08.517Z,1009.7
2017-07-14T06:19:08.496Z,1009.72
2017-07-14T06:20:08.479Z,1009.67
2017-07-14T06:21:08.459Z,1009.71
2017-07-14T06:22:08.447Z,1009.66
2017-07-14T06:23:08.426Z,1009.66
2017-07-14T06:24:08.409Z,1009.67
2017-07-14T06:25:08.396Z,1009.67
2017-07-14T06:26:08.377Z,1009.66
2017-07-14T06:27:08.364Z,1009.68
2017-07-14T06:28:08.348Z,1009.63
2017-07-14T06:29:08.325Z,1009.64
2017-07-14T06:30:08.315Z,1009.62
2017-07-14T06:31:08.297Z,1009.59
2017-07-14T06:32:08.280Z,1009.63
2017-07-14T06:33:08.259Z,1009.6
2017-07-14T06:34:08.249Z,1009.59
2017-07-14T06:35:08.225Z,1009.58
2017-07-14T06:36:08.216Z,1009.61
2017-07-14T06:37:08.197Z,1009.57
2017-07-14T06:38:08.187Z,1009.57
2017-07-14T06:39:08.165Z,1009.6
2017-07-14T06:40:08.148Z,1009.61
2017-07-14T06:41:08.138Z,1009.61
2017-07-14T06:42:08.116Z,1009.59
2017-07-14T06:43:08.108Z,1009.59
2017-07-14T06:44:08.091Z,1009.59
2017-07-14T06:45:08.066Z,1009.59
2017-07-14T06:46:08.053Z,1009.56
2017-07-14T06:47:08.037Z,1009.58
2017-07-14T06:48:08.027Z,1009.53
2017-07-14T06:49:08.005Z,1009.54
2017-07-14T06:50:07.989Z,1009.55
2017-07-14T06:51:07.971Z,1009.55
2017-07-14T06:52:07.956Z,1009.54
2017-07-14T06:53:07.939Z,1009.51
2017-07-14T06:54:07.926Z,1009.53
2017-07-14T06:55:07.920Z,1009.52
2017-07-14T06:56:07.897Z,1009.5
2017-07-14T06:57:07.877Z,1009.5
2017-07-14T06:58:07.864Z,1009.51
2017-07-14T06:59:07.849Z,1009.49
2017-07-14T07:00:07.845Z,1009.54
2017-07-14T07:01:07.818Z,1009.5
2017-07-14T07:02:07.807Z,1009.5
2017-07-14T07:03:07.787Z,1009.49
2017-07-14T07:04:07.775Z,1009.53
2017-07-14T07:05:07.759Z,1009.51
2017-07-14T07:06:07.737Z,1009.49
2017-07-14T07:07:07.728Z,1009.53
2017-07-14T07:08:07.706Z,1009.52
2017-07-14T07:09:07.694Z,1009.55
2017-07-14T07:10:07.679Z,1009.54
2017-07-14T07:11:07.672Z,1009.57
2017-07-14T07:12:07.647Z,1009.56
2017-07-14T07:13:07.638Z,1009.5
2017-07-14T07:14:07.617Z,1009.52
2017-07-14T07:15:07.605Z,1009.52
2017-07-14T07:16:07.588Z,1009.54
2017-07-14T07:17:07.573Z,1009.5
2017-07-14T07:18:07.563Z,1009.51
2017-07-14T07:19:07.547Z,1009.52
2017-07-14T07:20:07.527Z,1009.55
2017-07-14T07:21:07.529Z,1009.55
2017-07-14T07:22:07.500Z,1009.52
2017-07-14T07:23:07.486Z,1009.51
2017-07-14T07:24:07.478Z,1009.54
2017-07-14T07:25:07.458Z,1009.51
2017-07-14T07:26:07.447Z,1009.55
2017-07-14T07:27:07.438Z,1009.56
2017-07-14T07:28:07.419Z,1009.55
2017-07-14T07:29:07.404Z,1009.57
2017-07-14T07:30:07.389Z,1009.49
2017-07-14T07:31:07.373Z,1009.51
2017-07-14T07:32:07.357Z,1009.53
2017-07-14T07:33:07.346Z,1009.56
2017-07-14T07:34:07.338Z,1009.51
2017-07-14T07:35:07.315Z,1009.56
2017-07-14T07:36:07.317Z,1009.57
2017-07-14T07:37:07.298Z,1009.61
2017-07-14T07:38:07.275Z,1009.6
2017-07-14T07:39:07.268Z,1009.59
2017-07-14T07:40:07.248Z,1009.62
2017-07-14T07:41:07.243Z,1009.61
2017-07-14T07:42:07.218Z,1009.61
2017-07-14T07:43:07.210Z,1009.64
2017-07-14T07:44:07.198Z,1009.59
2017-07-14T07:45:07.188Z,1009.61
2017-07-14T07:46:07.169Z,1009.64
2017-07-14T07:47:07.157Z,1009.66
2017-07-14T07:48:07.137Z,1009.65
2017-07-14T07:49:07.147Z,1009.67
2017-07-14T07:50:07.111Z,1009.72
2017-07-14T07:51:07.207Z,1009.68
2017-07-14T07:52:07.088Z,1009.68
2017-07-14T07:53:07.079Z,1009.7
2017-07-14T07:54:07.065Z,1009.71
2017-07-14T07:55:07.057Z,1009.69
2017-07-14T07:56:07.051Z,1009.69
2017-07-14T07:57:07.088Z,1009.72
2017-07-14T07:58:07.017Z,1009.72
2017-07-14T07:59:07.010Z,1009.71
2017-07-14T08:00:06.985Z,1009.74
2017-07-14T08:01:06.979Z,1009.65
2017-07-14T08:02:06.965Z,1009.66
2017-07-14T08:03:06.946Z,1009.62
2017-07-14T08:04:06.938Z,1009.65
2017-07-14T08:05:06.927Z,1009.64
2017-07-14T08:06:06.919Z,1009.64
2017-07-14T08:07:06.896Z,1009.67
2017-07-14T08:08:06.890Z,1009.65
2017-07-14T08:09:06.874Z,1009.67
2017-07-14T08:10:06.875Z,1009.62
2017-07-14T08:11:06.859Z,1009.61
2017-07-14T08:12:06.846Z,1009.64
2017-07-14T08:13:06.828Z,1009.61
2017-07-14T08:14:06.818Z,1009.63
2017-07-14T08:15:06.806Z,1009.6
2017-07-14T08:16:06.793Z,1009.58
2017-07-14T08:17:06.784Z,1009.61
2017-07-14T08:18:06.767Z,1009.58
2017-07-14T08:19:06.758Z,1009.58
2017-07-14T08:20:06.744Z,1009.55
2017-07-14T08:21:06.735Z,1009.54
2017-07-14T08:22:06.728Z,1009.56
2017-07-14T08:23:06.712Z,1009.6
2017-07-14T08:24:06.708Z,1009.58
2017-07-14T08:25:06.688Z,1009.52
2017-07-14T08:26:06.679Z,1009.52
2017-07-14T08:27:06.665Z,1009.53
2017-07-14T08:28:06.651Z,1009.5
2017-07-14T08:29:06.642Z,1009.52
2017-07-14T08:30:06.639Z,1009.5
2017-07-14T08:31:06.621Z,1009.49
2017-07-14T08:32:06.610Z,1009.48
2017-07-14T08:33:06.597Z,1009.48
2017-07-14T08:34:06.589Z,1009.47
2017-07-14T08:35:06.576Z,1009.43
2017-07-14T08:36:06.562Z,1009.45
2017-07-14T08:37:06.549Z,1009.44
2017-07-14T08:38:06.539Z,1009.44
2017-07-14T08:39:06.525Z,1009.44
2017-07-14T08:40:06.516Z,1009.42
2017-07-14T08:41:06.505Z,1009.4
2017-07-14T08:42:06.496Z,1009.42
2017-07-14T08:43:06.487Z,1009.36
2017-07-14T08:44:06.471Z,1009.41
2017-07-14T08:45:06.459Z,1009.42
2017-07-14T08:46:06.458Z,1009.36
2017-07-14T08:47:06.440Z,1009.43
2017-07-14T08:48:06.423Z,1009.45
2017-07-14T08:49:06.416Z,1009.48
2017-07-14T08:50:06.401Z,1009.51
2017-07-14T08:51:06.396Z,1009.59
2017-07-14T08:52:06.377Z,1009.45
2017-07-14T08:53:06.368Z,1009.65
2017-07-14T08:54:06.360Z,1009.68
2017-07-14T08:55:06.351Z,1009.7
2017-07-14T08:56:06.342Z,1009.66
2017-07-14T08:57:06.327Z,1009.6
2017-07-14T08:58:06.315Z,1009.66
2017-07-14T08:59:06.309Z,1009.68
2017-07-14T09:00:06.297Z,1009.57
2017-07-14T09:01:06.287Z,1009.65
2017-07-14T09:02:06.289Z,1009.73
2017-07-14T09:03:06.261Z,1009.55
2017-07-14T09:04:06.252Z,1009.46
2017-07-14T09:05:06.242Z,1009.55
2017-07-14T09:06:06.231Z,1009.68
2017-07-14T09:07:06.223Z,1009.67
2017-07-14T09:08:06.214Z,1009.77
2017-07-14T09:09:06.203Z,1009.75
2017-07-14T09:10:06.198Z,1009.69
2017-07-14T09:11:06.181Z,1009.65
2017-07-14T09:12:06.176Z,1009.37
2017-07-14T09:13:06.168Z,1009.39
2017-07-14T09:14:06.159Z,1009.4
2017-07-14T09:15:06.153Z,1009.35
2017-07-14T09:16:06.145Z,1009.41
2017-07-14T09:17:06.137Z,1009.4
2017-07-14T09:18:06.128Z,1009.65
2017-07-14T09:19:06.111Z,1009.67
2017-07-14T09:20:06.106Z,1009.61
2017-07-14T09:21:06.117Z,1009.58
2017-07-14T09:22:06.088Z,1009.54
2017-07-14T09:23:06.082Z,1009.56
2017-07-14T09:24:06.075Z,1009.57
2017-07-14T09:25:06.067Z,1009.57
2017-07-14T09:26:06.058Z,1009.58
2017-07-14T09:27:06.050Z,1009.54
2017-07-14T09:28:06.042Z,1009.56
2017-07-14T09:29:06.040Z,1009.55
2017-07-14T09:30:06.032Z,1009.51
2017-07-14T09:31:06.027Z,1009.5
2017-07-14T09:32:06.022Z,1009.48
2017-07-14T09:33:06.010Z,1009.53
2017-07-14T09:34:06.012Z,1009.51
2017-07-14T09:35:06.006Z,1009.37
2017-07-14T09:36:06.000Z,1009.44
2017-07-14T09:37:05.991Z,1009.35
2017-07-14T09:38:05.986Z,1009.41
2017-07-14T09:39:05.983Z,1009.43
2017-07-14T09:40:05.976Z,1009.43
2017-07-14T09:41:05.990Z,1009.42
2017-07-14T09:42:05.961Z,1009.43
2017-07-14T09:43:05.966Z,1009.33
2017-07-14T09:44:05.948Z,1009.3
2017-07-14T09:45:05.947Z,1009.29
2017-07-14T09:46:05.939Z,1009.33
2017-07-14T09:47:05.932Z,1009.31
2017-07-14T09:48:05.927Z,1009.34
2017-07-14T09:49:05.922Z,1009.32
2017-07-14T09:50:05.909Z,1009.27
2017-07-14T09:51:05.904Z,1009.29
2017-07-14T09:52:05.900Z,1009.32
2017-07-14T09:53:05.890Z,1009.36
2017-07-14T09:54:05.884Z,1009.36
2017-07-14T09:55:05.872Z,1009.36
2017-07-14T09:56:05.864Z,1009.34
2017-07-14T09:57:05.855Z,1009.34
2017-07-14T09:58:05.848Z,1009.35
2017-07-14T09:59:05.839Z,1009.35
2017-07-14T10:00:05.832Z,1009.44
2017-07-14T10:01:05.829Z,1009.44
2017-07-14T10:02:05.816Z,1009.4
2017-07-14T10:03:05.806Z,1009.47
2017-07-14T10:04:05.807Z,1009.49
2017-07-14T10:05:05.800Z,1009.47
2017-07-14T10:06:05.784Z,1009.37
2017-07-14T10:07:05.778Z,1009.37
2017-07-14T10:08:05.776Z,1009.41
2017-07-14T10:09:05.776Z,1009.47
2017-07-14T10:10:05.759Z,1009.43
2017-07-14T10:11:05.752Z,1009.38
2017-07-14T10:12:05.747Z,1009.34
2017-07-14T10:13:05.749Z,1009.28
2017-07-14T10:14:05.738Z,1009.33
2017-07-14T10:15:05.738Z,1009.34
2017-07-14T10:16:05.791Z,1009.31
2017-07-14T10:17:05.720Z,1009.35
2017-07-14T10:18:05.724Z,1009.33
2017-07-14T10:19:05.716Z,1009.31
2017-07-14T10:20:05.708Z,1009.29
2017-07-14T10:21:05.699Z,1009.28
2017-07-14T10:22:05.798Z,1009.31
2017-07-14T10:23:05.690Z,1009.26
2017-07-14T10:24:05.688Z,1009.23
2017-07-14T10:25:05.677Z,1009.27
2017-07-14T10:26:05.677Z,1009.33
2017-07-14T10:27:05.667Z,1009.25
2017-07-14T10:28:05.717Z,1009.22
2017-07-14T10:29:05.663Z,1009.25
2017-07-14T10:30:05.647Z,1009.29
2017-07-14T10:31:05.648Z,1009.32
2017-07-14T10:32:05.638Z,1009.28
2017-07-14T10:33:05.627Z,1009.26
2017-07-14T10:34:05.617Z,1009.2
2017-07-14T10:35:05.617Z,1009.21
2017-07-14T10:36:05.603Z,1009.21
2017-07-14T10:37:05.597Z,1009.2
2017-07-14T10:38:05.588Z,1009.2
2017-07-14T10:39:05.591Z,1009.23
2017-07-14T10:40:05.570Z,1009.2
2017-07-14T10:41:05.568Z,1009.21
2017-07-14T10:42:05.558Z,1009.18
2017-07-14T10:43:05.545Z,1009.18
2017-07-14T10:44:05.539Z,1009.25
2017-07-14T10:45:05.545Z,1009.19
2017-07-14T10:46:05.525Z,1009.15
2017-07-14T10:47:05.516Z,1009.2
2017-07-14T10:48:05.510Z,1009.18
2017-07-14T10:49:05.547Z,1009.17
2017-07-14T10:50:05.489Z,1009.15
2017-07-14T10:51:05.476Z,1009.14
2017-07-14T10:52:05.465Z,1009.11
2017-07-14T10:53:05.455Z,1009.13
2017-07-14T10:54:05.448Z,1009.14
2017-07-14T10:55:05.437Z,1009.14
2017-07-14T10:56:05.438Z,1009.13
2017-07-14T10:57:05.426Z,1009.13
2017-07-14T10:58:05.411Z,1009.13
2017-07-14T10:59:05.406Z,1009.13
2017-07-14T11:00:05.396Z,1009.19
2017-07-14T11:01:05.417Z,1009.12
2017-07-14T11:02:05.377Z,1009.2
2017-07-14T11:03:05.365Z,1009.23
2017-07-14T11:04:05.354Z,1009.25
2017-07-14T11:05:05.348Z,1009.17
2017-07-14T11:06:05.338Z,1009.15
2017-07-14T11:07:05.326Z,1009.22
2017-07-14T11:08:05.316Z,1009.1
2017-07-14T11:09:05.405Z,1009.1
2017-07-14T11:10:05.297Z,1009.13
2017-07-14T11:11:05.336Z,1009.09
2017-07-14T11:12:05.277Z,1009.13
2017-07-14T11:13:05.267Z,1009.16
2017-07-14T11:14:05.260Z,1009.15
2017-07-14T11:15:05.248Z,1009.09
2017-07-14T11:16:05.246Z,1009.14
2017-07-14T11:17:05.232Z,1009.07
2017-07-14T11:18:05.225Z,1009.03
2017-07-14T11:19:05.208Z,1009.03
2017-07-14T11:20:05.206Z,1009.03
2017-07-14T11:21:05.199Z,1009.11
2017-07-14T11:22:05.214Z,1009.09
2017-07-14T11:23:05.177Z,1009.06
2017-07-14T11:24:05.165Z,1009.12
2017-07-14T11:25:05.161Z,1009.08
2017-07-14T11:26:05.159Z,1009.07
2017-07-14T11:27:05.137Z,1009.07
2017-07-14T11:28:05.135Z,1009.1
2017-07-14T11:29:05.126Z,1009.14
2017-07-14T11:30:05.117Z,1009.2
2017-07-14T11:31:05.104Z,1009.11
2017-07-14T11:32:05.100Z,1009.12
2017-07-14T11:33:05.088Z,1009.14
2017-07-14T11:34:05.077Z,1009.17
2017-07-14T11:35:05.065Z,1009.14
2017-07-14T11:36:05.070Z,1009.15
2017-07-14T11:37:05.043Z,1009.17
2017-07-14T11:38:05.040Z,1009.17
2017-07-14T11:39:05.031Z,1009.15
2017-07-14T11:40:05.023Z,1009.21
2017-07-14T11:41:05.011Z,1009.19
2017-07-14T11:42:05.003Z,1009.23
2017-07-14T11:43:04.987Z,1009.2
2017-07-14T11:44:04.982Z,1009.13
2017-07-14T11:45:04.976Z,1009.1
2017-07-14T11:46:04.961Z,1009.02
2017-07-14T11:47:04.951Z,1009.12
2017-07-14T11:48:04.942Z,1009.07
2017-07-14T11:49:04.932Z,1009.1
2017-07-14T11:50:04.923Z,1009.11
2017-07-14T11:51:04.907Z,1009.11
2017-07-14T11:52:04.902Z,1009.12
2017-07-14T11:53:04.888Z,1009.12
2017-07-14T11:54:04.881Z,1009.14
2017-07-14T11:55:04.871Z,1009.06
2017-07-14T11:56:04.849Z,1009.07
2017-07-14T11:57:04.853Z,1009.1
2017-07-14T11:58:04.839Z,1009.14
2017-07-14T11:59:04.830Z,1009.1
2017-07-14T12:00:04.811Z,1009.05
2017-07-14T12:01:04.811Z,1009.11
2017-07-14T12:02:04.787Z,1009.1
2017-07-14T12:03:04.778Z,1009.09
2017-07-14T12:04:04.790Z,1009.08
2017-07-14T12:05:04.756Z,1009.08
2017-07-14T12:06:04.749Z,1009.03
2017-07-14T12:07:04.739Z,1009.1
2017-07-14T12:08:04.733Z,1009.05